sensor_id;sensor_type;location;lat;lon;timestamp;P1;durP1;ratioP1;P2;durP2;ratioP2
30892;SDS011;17595;50.884;4.346;2022-09-16T00:00:21;4.97;;;1.58;;
30892;SDS011;17595;50.884;4.346;2022-09-16T00:02:47;5.57;;;1.63;;
30892;SDS011;17595;50.884;4.346;2022-09-16T00:05:15;4.60;;;1.38;;
30892;SDS011;17595;50.884;4.346;2022-09-16T00:07:41;5.45;;;1.50;;
30892;SDS011;17595;50.884;4.346;2022-09-16T00:10:07;6.90;;;2.00;;
30892;SDS011;17595;50.884;4.346;2022-09-16T00:12:32;6.82;;;1.67;;
30892;SDS011;17595;50.884;4.346;2022-09-16T00:14:58;6.80;;;1.75;;
30892;SDS011;17595;50.884;4.346;2022-09-16T00:17:23;7.13;;;1.35;;
30892;SDS011;17595;50.884;4.346;2022-09-16T00:19:49;5.70;;;1.30;;
30892;SDS011;17595;50.884;4.346;2022-09-16T00:22:15;7.38;;;1.50;;
30892;SDS011;17595;50.884;4.346;2022-09-16T00:24:43;5.95;;;1.63;;
30892;SDS011;17595;50.884;4.346;2022-09-16T00:27:09;5.50;;;1.35;;
30892;SDS011;17595;50.884;4.346;2022-09-16T00:29:34;6.40;;;1.65;;
30892;SDS011;17595;50.884;4.346;2022-09-16T00:32:00;7.72;;;1.70;;
30892;SDS011;17595;50.884;4.346;2022-09-16T00:34:26;7.95;;;1.85;;
30892;SDS011;17595;50.884;4.346;2022-09-16T00:36:52;8.70;;;1.52;;
30892;SDS011;17595;50.884;4.346;2022-09-16T00:39:17;6.55;;;1.90;;
30892;SDS011;17595;50.884;4.346;2022-09-16T00:41:43;7.07;;;1.63;;
30892;SDS011;17595;50.884;4.346;2022-09-16T00:47:12;10.60;;;1.83;;
30892;SDS011;17595;50.884;4.346;2022-09-16T00:49:40;7.28;;;1.50;;
30892;SDS011;17595;50.884;4.346;2022-09-16T00:52:07;6.13;;;1.58;;
30892;SDS011;17595;50.884;4.346;2022-09-16T00:54:33;4.57;;;1.33;;
30892;SDS011;17595;50.884;4.346;2022-09-16T00:57:01;3.70;;;1.50;;
30892;SDS011;17595;50.884;4.346;2022-09-16T00:59:30;9.60;;;1.70;;
30892;SDS011;17595;50.884;4.346;2022-09-16T01:02:10;6.63;;;1.20;;
30892;SDS011;17595;50.884;4.346;2022-09-16T01:04:44;4.32;;;1.45;;
30892;SDS011;17595;50.884;4.346;2022-09-16T01:07:29;4.82;;;1.67;;
30892;SDS011;17595;50.884;4.346;2022-09-16T01:10:19;7.47;;;1.95;;
30892;SDS011;17595;50.884;4.346;2022-09-16T01:12:48;4.28;;;1.40;;
30892;SDS011;17595;50.884;4.346;2022-09-16T01:15:18;14.07;;;1.80;;
30892;SDS011;17595;50.884;4.346;2022-09-16T01:17:51;14.43;;;1.63;;
30892;SDS011;17595;50.884;4.346;2022-09-16T01:31:13;7.70;;;1.63;;
30892;SDS011;17595;50.884;4.346;2022-09-16T01:34:30;18.20;;;1.75;;
30892;SDS011;17595;50.884;4.346;2022-09-16T01:49:46;7.70;;;1.98;;
30892;SDS011;17595;50.884;4.346;2022-09-16T01:55:06;8.02;;;1.27;;
30892;SDS011;17595;50.884;4.346;2022-09-16T01:57:46;4.40;;;1.15;;
30892;SDS011;17595;50.884;4.346;2022-09-16T02:00:14;4.65;;;1.38;;
30892;SDS011;17595;50.884;4.346;2022-09-16T02:05:35;6.57;;;1.23;;
30892;SDS011;17595;50.884;4.346;2022-09-16T02:08:06;14.13;;;1.90;;
30892;SDS011;17595;50.884;4.346;2022-09-16T02:10:37;3.63;;;1.20;;
30892;SDS011;17595;50.884;4.346;2022-09-16T02:13:12;6.65;;;1.60;;
30892;SDS011;17595;50.884;4.346;2022-09-16T02:15:46;4.25;;;1.35;;
30892;SDS011;17595;50.884;4.346;2022-09-16T02:18:16;5.70;;;1.40;;
30892;SDS011;17595;50.884;4.346;2022-09-16T02:20:44;9.68;;;1.38;;
30892;SDS011;17595;50.884;4.346;2022-09-16T02:23:16;7.45;;;1.52;;
30892;SDS011;17595;50.884;4.346;2022-09-16T02:25:45;6.78;;;1.67;;
30892;SDS011;17595;50.884;4.346;2022-09-16T02:28:15;7.68;;;1.77;;
30892;SDS011;17595;50.884;4.346;2022-09-16T02:30:46;7.70;;;1.67;;
30892;SDS011;17595;50.884;4.346;2022-09-16T02:33:14;4.63;;;1.20;;
30892;SDS011;17595;50.884;4.346;2022-09-16T02:35:41;7.85;;;1.40;;
30892;SDS011;17595;50.884;4.346;2022-09-16T02:40:54;6.78;;;1.40;;
30892;SDS011;17595;50.884;4.346;2022-09-16T02:46:08;5.35;;;1.48;;
30892;SDS011;17595;50.884;4.346;2022-09-16T02:49:01;8.85;;;1.60;;
30892;SDS011;17595;50.884;4.346;2022-09-16T02:57:00;4.38;;;1.23;;
30892;SDS011;17595;50.884;4.346;2022-09-16T02:59:27;3.92;;;1.67;;
30892;SDS011;17595;50.884;4.346;2022-09-16T03:01:52;5.85;;;1.00;;
30892;SDS011;17595;50.884;4.346;2022-09-16T03:04:19;3.25;;;1.30;;
30892;SDS011;17595;50.884;4.346;2022-09-16T03:06:44;3.80;;;1.17;;
30892;SDS011;17595;50.884;4.346;2022-09-16T03:09:11;4.70;;;1.13;;
30892;SDS011;17595;50.884;4.346;2022-09-16T03:14:24;4.07;;;1.40;;
30892;SDS011;17595;50.884;4.346;2022-09-16T03:28:12;3.53;;;1.23;;
30892;SDS011;17595;50.884;4.346;2022-09-16T03:30:52;10.02;;;1.20;;
30892;SDS011;17595;50.884;4.346;2022-09-16T03:33:36;4.35;;;1.23;;
30892;SDS011;17595;50.884;4.346;2022-09-16T03:36:15;6.65;;;1.70;;
30892;SDS011;17595;50.884;4.346;2022-09-16T03:38:47;8.20;;;1.30;;
30892;SDS011;17595;50.884;4.346;2022-09-16T03:41:14;6.60;;;1.48;;
30892;SDS011;17595;50.884;4.346;2022-09-16T03:43:50;5.60;;;1.40;;
30892;SDS011;17595;50.884;4.346;2022-09-16T03:48:46;7.10;;;1.60;;
30892;SDS011;17595;50.884;4.346;2022-09-16T03:51:11;5.35;;;1.52;;
30892;SDS011;17595;50.884;4.346;2022-09-16T03:53:38;6.88;;;1.13;;
30892;SDS011;17595;50.884;4.346;2022-09-16T03:56:04;6.40;;;1.58;;
30892;SDS011;17595;50.884;4.346;2022-09-16T03:58:29;12.35;;;2.05;;
30892;SDS011;17595;50.884;4.346;2022-09-16T04:00:55;3.85;;;1.25;;
30892;SDS011;17595;50.884;4.346;2022-09-16T04:03:20;6.03;;;1.33;;
30892;SDS011;17595;50.884;4.346;2022-09-16T04:05:51;6.43;;;1.10;;
30892;SDS011;17595;50.884;4.346;2022-09-16T04:08:17;4.97;;;1.15;;
30892;SDS011;17595;50.884;4.346;2022-09-16T04:10:51;6.85;;;1.40;;
30892;SDS011;17595;50.884;4.346;2022-09-16T04:13:21;1.98;;;1.05;;
30892;SDS011;17595;50.884;4.346;2022-09-16T04:15:47;6.07;;;1.13;;
30892;SDS011;17595;50.884;4.346;2022-09-16T04:18:12;5.63;;;1.27;;
30892;SDS011;17595;50.884;4.346;2022-09-16T04:20:38;6.40;;;1.42;;
30892;SDS011;17595;50.884;4.346;2022-09-16T04:23:04;4.45;;;1.10;;
30892;SDS011;17595;50.884;4.346;2022-09-16T04:25:29;6.30;;;1.20;;
30892;SDS011;17595;50.884;4.346;2022-09-16T04:27:55;7.25;;;1.38;;
30892;SDS011;17595;50.884;4.346;2022-09-16T04:30:21;5.03;;;1.13;;
30892;SDS011;17595;50.884;4.346;2022-09-16T04:32:46;7.18;;;1.30;;
30892;SDS011;17595;50.884;4.346;2022-09-16T04:35:16;7.95;;;1.77;;
30892;SDS011;17595;50.884;4.346;2022-09-16T04:37:43;5.80;;;1.20;;
30892;SDS011;17595;50.884;4.346;2022-09-16T04:40:09;4.43;;;1.10;;
30892;SDS011;17595;50.884;4.346;2022-09-16T04:42:34;5.65;;;1.23;;
30892;SDS011;17595;50.884;4.346;2022-09-16T04:45:00;4.47;;;1.20;;
30892;SDS011;17595;50.884;4.346;2022-09-16T04:47:26;4.97;;;1.13;;
30892;SDS011;17595;50.884;4.346;2022-09-16T04:49:51;6.15;;;1.27;;
30892;SDS011;17595;50.884;4.346;2022-09-16T04:52:17;5.38;;;1.05;;
30892;SDS011;17595;50.884;4.346;2022-09-16T04:54:42;5.10;;;1.60;;
30892;SDS011;17595;50.884;4.346;2022-09-16T04:57:08;9.30;;;1.60;;
30892;SDS011;17595;50.884;4.346;2022-09-16T04:59:34;3.30;;;0.98;;
30892;SDS011;17595;50.884;4.346;2022-09-16T05:01:59;3.97;;;1.30;;
30892;SDS011;17595;50.884;4.346;2022-09-16T05:04:25;3.58;;;1.05;;
30892;SDS011;17595;50.884;4.346;2022-09-16T05:06:50;3.35;;;1.20;;
30892;SDS011;17595;50.884;4.346;2022-09-16T05:09:16;8.63;;;1.52;;
30892;SDS011;17595;50.884;4.346;2022-09-16T05:11:42;7.20;;;2.10;;
30892;SDS011;17595;50.884;4.346;2022-09-16T05:14:09;3.97;;;1.50;;
30892;SDS011;17595;50.884;4.346;2022-09-16T05:16:38;9.85;;;1.17;;
30892;SDS011;17595;50.884;4.346;2022-09-16T05:19:04;4.65;;;1.05;;
30892;SDS011;17595;50.884;4.346;2022-09-16T05:21:31;7.68;;;1.20;;
30892;SDS011;17595;50.884;4.346;2022-09-16T05:24:01;8.77;;;1.60;;
30892;SDS011;17595;50.884;4.346;2022-09-16T05:26:30;4.05;;;1.08;;
30892;SDS011;17595;50.884;4.346;2022-09-16T05:28:58;5.82;;;1.42;;
30892;SDS011;17595;50.884;4.346;2022-09-16T05:31:30;8.45;;;1.75;;
30892;SDS011;17595;50.884;4.346;2022-09-16T05:34:01;9.30;;;1.80;;
30892;SDS011;17595;50.884;4.346;2022-09-16T05:36:32;8.05;;;1.30;;
30892;SDS011;17595;50.884;4.346;2022-09-16T05:39:00;4.15;;;1.60;;
30892;SDS011;17595;50.884;4.346;2022-09-16T05:41:26;6.55;;;1.63;;
30892;SDS011;17595;50.884;4.346;2022-09-16T05:43:52;5.45;;;1.70;;
30892;SDS011;17595;50.884;4.346;2022-09-16T05:46:19;3.22;;;1.20;;
30892;SDS011;17595;50.884;4.346;2022-09-16T05:48:46;6.25;;;1.70;;
30892;SDS011;17595;50.884;4.346;2022-09-16T05:51:13;4.03;;;1.30;;
30892;SDS011;17595;50.884;4.346;2022-09-16T05:53:41;6.03;;;1.48;;
30892;SDS011;17595;50.884;4.346;2022-09-16T05:56:11;5.40;;;1.65;;
30892;SDS011;17595;50.884;4.346;2022-09-16T05:58:39;3.67;;;1.20;;
30892;SDS011;17595;50.884;4.346;2022-09-16T06:01:09;4.63;;;1.40;;
30892;SDS011;17595;50.884;4.346;2022-09-16T06:03:37;10.88;;;1.90;;
30892;SDS011;17595;50.884;4.346;2022-09-16T06:06:04;6.78;;;1.77;;
30892;SDS011;17595;50.884;4.346;2022-09-16T06:08:40;5.85;;;2.22;;
30892;SDS011;17595;50.884;4.346;2022-09-16T06:11:07;6.88;;;1.70;;
30892;SDS011;17595;50.884;4.346;2022-09-16T06:13:34;7.60;;;1.70;;
30892;SDS011;17595;50.884;4.346;2022-09-16T06:16:01;6.55;;;1.27;;
30892;SDS011;17595;50.884;4.346;2022-09-16T06:18:27;4.22;;;1.15;;
30892;SDS011;17595;50.884;4.346;2022-09-16T06:20:54;3.63;;;1.15;;
30892;SDS011;17595;50.884;4.346;2022-09-16T06:23:21;4.47;;;1.10;;
30892;SDS011;17595;50.884;4.346;2022-09-16T06:25:47;7.50;;;1.80;;
30892;SDS011;17595;50.884;4.346;2022-09-16T06:28:13;4.18;;;1.23;;
30892;SDS011;17595;50.884;4.346;2022-09-16T06:30:39;5.60;;;1.20;;
30892;SDS011;17595;50.884;4.346;2022-09-16T06:33:05;2.67;;;0.93;;
30892;SDS011;17595;50.884;4.346;2022-09-16T06:35:32;6.95;;;1.48;;
30892;SDS011;17595;50.884;4.346;2022-09-16T06:37:58;3.88;;;1.33;;
30892;SDS011;17595;50.884;4.346;2022-09-16T06:40:24;3.45;;;1.20;;
30892;SDS011;17595;50.884;4.346;2022-09-16T06:42:53;6.53;;;1.73;;
30892;SDS011;17595;50.884;4.346;2022-09-16T06:47:45;6.35;;;1.08;;
30892;SDS011;17595;50.884;4.346;2022-09-16T06:50:11;5.75;;;1.27;;
30892;SDS011;17595;50.884;4.346;2022-09-16T06:52:36;6.18;;;1.27;;
30892;SDS011;17595;50.884;4.346;2022-09-16T06:55:02;4.05;;;1.33;;
30892;SDS011;17595;50.884;4.346;2022-09-16T06:57:28;5.55;;;1.80;;
30892;SDS011;17595;50.884;4.346;2022-09-16T06:59:54;5.95;;;1.70;;
30892;SDS011;17595;50.884;4.346;2022-09-16T07:02:20;7.07;;;1.65;;
30892;SDS011;17595;50.884;4.346;2022-09-16T07:04:45;7.63;;;2.20;;
30892;SDS011;17595;50.884;4.346;2022-09-16T07:07:11;3.42;;;1.58;;
30892;SDS011;17595;50.884;4.346;2022-09-16T07:09:37;4.50;;;1.45;;
30892;SDS011;17595;50.884;4.346;2022-09-16T07:12:03;9.20;;;2.17;;
30892;SDS011;17595;50.884;4.346;2022-09-16T07:14:30;6.88;;;1.90;;
30892;SDS011;17595;50.884;4.346;2022-09-16T07:16:58;4.88;;;1.80;;
30892;SDS011;17595;50.884;4.346;2022-09-16T07:19:25;7.60;;;2.17;;
30892;SDS011;17595;50.884;4.346;2022-09-16T07:21:51;6.35;;;1.50;;
30892;SDS011;17595;50.884;4.346;2022-09-16T07:24:18;6.82;;;1.73;;
30892;SDS011;17595;50.884;4.346;2022-09-16T07:26:43;5.97;;;1.58;;
30892;SDS011;17595;50.884;4.346;2022-09-16T07:29:10;7.00;;;1.25;;
30892;SDS011;17595;50.884;4.346;2022-09-16T07:31:37;5.70;;;1.58;;
30892;SDS011;17595;50.884;4.346;2022-09-16T07:34:04;5.18;;;1.50;;
30892;SDS011;17595;50.884;4.346;2022-09-16T07:36:36;8.15;;;1.38;;
30892;SDS011;17595;50.884;4.346;2022-09-16T07:39:04;7.28;;;1.42;;
30892;SDS011;17595;50.884;4.346;2022-09-16T07:41:35;8.27;;;1.23;;
30892;SDS011;17595;50.884;4.346;2022-09-16T07:44:02;5.78;;;1.38;;
30892;SDS011;17595;50.884;4.346;2022-09-16T07:46:29;3.90;;;0.90;;
30892;SDS011;17595;50.884;4.346;2022-09-16T07:48:57;2.60;;;1.10;;
30892;SDS011;17595;50.884;4.346;2022-09-16T07:51:24;4.20;;;0.88;;
30892;SDS011;17595;50.884;4.346;2022-09-16T07:53:54;3.30;;;0.75;;
30892;SDS011;17595;50.884;4.346;2022-09-16T07:56:23;3.80;;;1.00;;
30892;SDS011;17595;50.884;4.346;2022-09-16T07:58:50;4.20;;;1.38;;
30892;SDS011;17595;50.884;4.346;2022-09-16T08:01:16;5.75;;;1.00;;
30892;SDS011;17595;50.884;4.346;2022-09-16T08:03:42;1.95;;;1.13;;
30892;SDS011;17595;50.884;4.346;2022-09-16T08:06:10;2.30;;;0.65;;
30892;SDS011;17595;50.884;4.346;2022-09-16T08:08:37;2.75;;;0.50;;
30892;SDS011;17595;50.884;4.346;2022-09-16T08:11:03;3.25;;;0.73;;
30892;SDS011;17595;50.884;4.346;2022-09-16T08:13:29;5.97;;;1.10;;
30892;SDS011;17595;50.884;4.346;2022-09-16T08:16:16;4.38;;;0.82;;
30892;SDS011;17595;50.884;4.346;2022-09-16T08:18:43;1.45;;;0.75;;
30892;SDS011;17595;50.884;4.346;2022-09-16T08:21:11;4.68;;;0.88;;
30892;SDS011;17595;50.884;4.346;2022-09-16T08:23:39;5.50;;;0.90;;
30892;SDS011;17595;50.884;4.346;2022-09-16T08:26:05;5.50;;;1.08;;
30892;SDS011;17595;50.884;4.346;2022-09-16T08:28:35;3.38;;;0.88;;
30892;SDS011;17595;50.884;4.346;2022-09-16T08:31:02;2.53;;;0.73;;
30892;SDS011;17595;50.884;4.346;2022-09-16T08:33:28;4.68;;;1.20;;
30892;SDS011;17595;50.884;4.346;2022-09-16T08:36:02;5.72;;;0.98;;
30892;SDS011;17595;50.884;4.346;2022-09-16T08:38:29;11.02;;;1.38;;
30892;SDS011;17595;50.884;4.346;2022-09-16T08:46:47;6.80;;;1.20;;
30892;SDS011;17595;50.884;4.346;2022-09-16T08:52:07;8.05;;;1.40;;
30892;SDS011;17595;50.884;4.346;2022-09-16T08:54:53;8.50;;;1.38;;
30892;SDS011;17595;50.884;4.346;2022-09-16T09:00:34;8.77;;;1.58;;
30892;SDS011;17595;50.884;4.346;2022-09-16T09:08:18;6.68;;;1.98;;
30892;SDS011;17595;50.884;4.346;2022-09-16T09:17:06;8.80;;;2.38;;
30892;SDS011;17595;50.884;4.346;2022-09-16T09:28:30;5.93;;;2.10;;
30892;SDS011;17595;50.884;4.346;2022-09-16T09:31:11;6.35;;;1.60;;
30892;SDS011;17595;50.884;4.346;2022-09-16T09:47:21;4.45;;;1.00;;
30892;SDS011;17595;50.884;4.346;2022-09-16T09:49:54;2.05;;;0.80;;
30892;SDS011;17595;50.884;4.346;2022-09-16T09:52:27;1.70;;;0.68;;
30892;SDS011;17595;50.884;4.346;2022-09-16T09:55:16;5.05;;;0.70;;
30892;SDS011;17595;50.884;4.346;2022-09-16T09:57:52;2.22;;;0.68;;
30892;SDS011;17595;50.884;4.346;2022-09-16T10:00:23;1.80;;;0.55;;
30892;SDS011;17595;50.884;4.346;2022-09-16T10:02:49;2.90;;;1.27;;
30892;SDS011;17595;50.884;4.346;2022-09-16T10:05:20;2.35;;;0.68;;
30892;SDS011;17595;50.884;4.346;2022-09-16T10:07:47;4.00;;;0.70;;
30892;SDS011;17595;50.884;4.346;2022-09-16T10:10:18;3.20;;;0.80;;
30892;SDS011;17595;50.884;4.346;2022-09-16T10:12:46;2.38;;;1.23;;
30892;SDS011;17595;50.884;4.346;2022-09-16T10:15:22;5.45;;;1.00;;
30892;SDS011;17595;50.884;4.346;2022-09-16T10:17:51;6.55;;;1.23;;
30892;SDS011;17595;50.884;4.346;2022-09-16T10:20:20;3.05;;;1.60;;
30892;SDS011;17595;50.884;4.346;2022-09-16T10:23:03;4.45;;;1.30;;
30892;SDS011;17595;50.884;4.346;2022-09-16T10:25:33;8.60;;;1.27;;
30892;SDS011;17595;50.884;4.346;2022-09-16T10:28:00;3.42;;;1.02;;
30892;SDS011;17595;50.884;4.346;2022-09-16T10:30:31;5.43;;;1.10;;
30892;SDS011;17595;50.884;4.346;2022-09-16T10:33:12;5.72;;;1.80;;
30892;SDS011;17595;50.884;4.346;2022-09-16T10:36:03;11.30;;;1.90;;
30892;SDS011;17595;50.884;4.346;2022-09-16T10:38:39;8.88;;;1.80;;
30892;SDS011;17595;50.884;4.346;2022-09-16T10:41:07;4.82;;;1.60;;
30892;SDS011;17595;50.884;4.346;2022-09-16T10:43:38;4.03;;;2.22;;
30892;SDS011;17595;50.884;4.346;2022-09-16T10:46:18;4.90;;;1.88;;
30892;SDS011;17595;50.884;4.346;2022-09-16T10:48:45;5.60;;;1.50;;
30892;SDS011;17595;50.884;4.346;2022-09-16T10:51:20;3.15;;;1.60;;
30892;SDS011;17595;50.884;4.346;2022-09-16T10:53:57;4.57;;;1.60;;
30892;SDS011;17595;50.884;4.346;2022-09-16T10:56:26;4.32;;;1.60;;
30892;SDS011;17595;50.884;4.346;2022-09-16T10:59:09;4.72;;;1.65;;
30892;SDS011;17595;50.884;4.346;2022-09-16T11:39:19;8.18;;;0.73;;
30892;SDS011;17595;50.884;4.346;2022-09-16T11:47:36;2.85;;;1.30;;
30892;SDS011;17595;50.884;4.346;2022-09-16T11:50:21;4.25;;;1.00;;
30892;SDS011;17595;50.884;4.346;2022-09-16T12:04:55;7.47;;;1.30;;
30892;SDS011;17595;50.884;4.346;2022-09-16T12:08:21;6.70;;;1.45;;
30892;SDS011;17595;50.884;4.346;2022-09-16T12:13:39;10.27;;;1.75;;
30892;SDS011;17595;50.884;4.346;2022-09-16T12:16:17;7.93;;;1.48;;
30892;SDS011;17595;50.884;4.346;2022-09-16T12:18:53;4.43;;;1.10;;
30892;SDS011;17595;50.884;4.346;2022-09-16T12:24:08;4.78;;;1.00;;
30892;SDS011;17595;50.884;4.346;2022-09-16T12:26:42;4.43;;;0.90;;
30892;SDS011;17595;50.884;4.346;2022-09-16T12:29:25;7.65;;;1.48;;
30892;SDS011;17595;50.884;4.346;2022-09-16T12:32:02;5.38;;;1.38;;
30892;SDS011;17595;50.884;4.346;2022-09-16T12:34:32;5.82;;;1.20;;
30892;SDS011;17595;50.884;4.346;2022-09-16T12:37:14;6.45;;;1.23;;
30892;SDS011;17595;50.884;4.346;2022-09-16T12:39:51;6.80;;;1.15;;
30892;SDS011;17595;50.884;4.346;2022-09-16T12:45:07;7.47;;;1.02;;
30892;SDS011;17595;50.884;4.346;2022-09-16T13:01:03;5.38;;;1.08;;
30892;SDS011;17595;50.884;4.346;2022-09-16T13:03:47;4.82;;;1.20;;
30892;SDS011;17595;50.884;4.346;2022-09-16T13:08:52;4.95;;;1.17;;
30892;SDS011;17595;50.884;4.346;2022-09-16T13:11:20;5.88;;;1.20;;
30892;SDS011;17595;50.884;4.346;2022-09-16T13:13:54;4.68;;;1.30;;
30892;SDS011;17595;50.884;4.346;2022-09-16T13:16:34;2.58;;;0.88;;
30892;SDS011;17595;50.884;4.346;2022-09-16T13:21:45;4.85;;;1.58;;
30892;SDS011;17595;50.884;4.346;2022-09-16T13:29:48;5.28;;;1.48;;
30892;SDS011;17595;50.884;4.346;2022-09-16T13:37:40;5.68;;;0.98;;
30892;SDS011;17595;50.884;4.346;2022-09-16T13:45:36;7.33;;;1.17;;
30892;SDS011;17595;50.884;4.346;2022-09-16T13:48:17;4.07;;;0.52;;
30892;SDS011;17595;50.884;4.346;2022-09-16T13:50:56;3.28;;;0.70;;
30892;SDS011;17595;50.884;4.346;2022-09-16T13:53:32;2.90;;;0.50;;
30892;SDS011;17595;50.884;4.346;2022-09-16T13:58:55;1.35;;;0.47;;
30892;SDS011;17595;50.884;4.346;2022-09-16T14:01:33;1.65;;;0.57;;
30892;SDS011;17595;50.884;4.346;2022-09-16T14:04:18;3.05;;;0.60;;
30892;SDS011;17595;50.884;4.346;2022-09-16T14:10:09;6.07;;;0.70;;
30892;SDS011;17595;50.884;4.346;2022-09-16T14:12:43;1.42;;;0.40;;
30892;SDS011;17595;50.884;4.346;2022-09-16T14:18:06;3.03;;;0.60;;
30892;SDS011;17595;50.884;4.346;2022-09-16T14:20:35;2.58;;;0.35;;
30892;SDS011;17595;50.884;4.346;2022-09-16T14:23:02;2.50;;;0.60;;
30892;SDS011;17595;50.884;4.346;2022-09-16T14:25:34;1.33;;;0.30;;
30892;SDS011;17595;50.884;4.346;2022-09-16T14:30:51;2.00;;;0.38;;
30892;SDS011;17595;50.884;4.346;2022-09-16T14:33:24;1.02;;;0.28;;
30892;SDS011;17595;50.884;4.346;2022-09-16T14:36:08;1.13;;;0.20;;
30892;SDS011;17595;50.884;4.346;2022-09-16T14:39:02;1.27;;;0.28;;
30892;SDS011;17595;50.884;4.346;2022-09-16T14:41:36;4.78;;;0.85;;
30892;SDS011;17595;50.884;4.346;2022-09-16T14:46:44;1.48;;;0.25;;
30892;SDS011;17595;50.884;4.346;2022-09-16T14:49:15;3.42;;;0.30;;
30892;SDS011;17595;50.884;4.346;2022-09-16T14:52:03;0.57;;;0.20;;
30892;SDS011;17595;50.884;4.346;2022-09-16T14:54:29;0.50;;;0.30;;
30892;SDS011;17595;50.884;4.346;2022-09-16T14:59:21;1.60;;;0.40;;
30892;SDS011;17595;50.884;4.346;2022-09-16T15:01:50;2.95;;;0.30;;
30892;SDS011;17595;50.884;4.346;2022-09-16T15:04:20;2.42;;;0.40;;
30892;SDS011;17595;50.884;4.346;2022-09-16T15:06:51;0.50;;;0.20;;
30892;SDS011;17595;50.884;4.346;2022-09-16T15:11:54;1.90;;;0.30;;
30892;SDS011;17595;50.884;4.346;2022-09-16T15:14:22;1.05;;;0.28;;
30892;SDS011;17595;50.884;4.346;2022-09-16T15:16:50;2.13;;;0.30;;
30892;SDS011;17595;50.884;4.346;2022-09-16T15:19:24;0.93;;;0.30;;
30892;SDS011;17595;50.884;4.346;2022-09-16T15:21:53;1.20;;;0.40;;
30892;SDS011;17595;50.884;4.346;2022-09-16T15:24:20;0.50;;;0.20;;
30892;SDS011;17595;50.884;4.346;2022-09-16T15:26:49;1.10;;;0.40;;
30892;SDS011;17595;50.884;4.346;2022-09-16T15:31:46;3.17;;;0.40;;
30892;SDS011;17595;50.884;4.346;2022-09-16T15:36:43;3.67;;;0.50;;
30892;SDS011;17595;50.884;4.346;2022-09-16T15:42:04;1.88;;;0.43;;
30892;SDS011;17595;50.884;4.346;2022-09-16T15:47:22;3.03;;;0.60;;
30892;SDS011;17595;50.884;4.346;2022-09-16T15:49:51;2.33;;;1.15;;
30892;SDS011;17595;50.884;4.346;2022-09-16T15:52:21;2.97;;;0.90;;
30892;SDS011;17595;50.884;4.346;2022-09-16T15:54:48;3.15;;;0.73;;
30892;SDS011;17595;50.884;4.346;2022-09-16T16:02:32;2.45;;;1.05;;
30892;SDS011;17595;50.884;4.346;2022-09-16T16:07:53;3.25;;;0.70;;
30892;SDS011;17595;50.884;4.346;2022-09-16T16:12:52;4.53;;;0.50;;
30892;SDS011;17595;50.884;4.346;2022-09-16T16:15:19;1.48;;;0.73;;
30892;SDS011;17595;50.884;4.346;2022-09-16T16:17:47;6.75;;;1.35;;
30892;SDS011;17595;50.884;4.346;2022-09-16T16:20:14;5.80;;;2.03;;
30892;SDS011;17595;50.884;4.346;2022-09-16T16:22:41;8.75;;;2.53;;
30892;SDS011;17595;50.884;4.346;2022-09-16T16:25:09;7.95;;;2.78;;
30892;SDS011;17595;50.884;4.346;2022-09-16T16:27:35;8.27;;;2.55;;
30892;SDS011;17595;50.884;4.346;2022-09-16T16:30:01;8.02;;;2.50;;
30892;SDS011;17595;50.884;4.346;2022-09-16T16:32:27;7.65;;;2.17;;
30892;SDS011;17595;50.884;4.346;2022-09-16T16:34:53;6.25;;;1.10;;
30892;SDS011;17595;50.884;4.346;2022-09-16T16:37:22;10.10;;;2.03;;
30892;SDS011;17595;50.884;4.346;2022-09-16T16:39:48;6.25;;;1.10;;
30892;SDS011;17595;50.884;4.346;2022-09-16T16:42:14;5.20;;;1.65;;
30892;SDS011;17595;50.884;4.346;2022-09-16T16:44:40;4.97;;;1.00;;
30892;SDS011;17595;50.884;4.346;2022-09-16T16:47:07;4.78;;;1.00;;
30892;SDS011;17595;50.884;4.346;2022-09-16T16:49:34;5.45;;;1.10;;
30892;SDS011;17595;50.884;4.346;2022-09-16T16:52:00;3.83;;;0.70;;
30892;SDS011;17595;50.884;4.346;2022-09-16T16:54:27;4.97;;;1.02;;
30892;SDS011;17595;50.884;4.346;2022-09-16T16:56:54;3.88;;;0.90;;
30892;SDS011;17595;50.884;4.346;2022-09-16T16:59:20;4.28;;;0.75;;
30892;SDS011;17595;50.884;4.346;2022-09-16T17:01:48;4.55;;;0.68;;
30892;SDS011;17595;50.884;4.346;2022-09-16T17:04:15;3.25;;;0.77;;
30892;SDS011;17595;50.884;4.346;2022-09-16T17:06:41;5.60;;;1.20;;
30892;SDS011;17595;50.884;4.346;2022-09-16T17:09:07;3.60;;;0.82;;
30892;SDS011;17595;50.884;4.346;2022-09-16T17:11:34;4.32;;;1.23;;
30892;SDS011;17595;50.884;4.346;2022-09-16T17:14:02;8.55;;;1.25;;
30892;SDS011;17595;50.884;4.346;2022-09-16T17:16:29;5.20;;;1.17;;
30892;SDS011;17595;50.884;4.346;2022-09-16T17:18:56;6.80;;;1.00;;
30892;SDS011;17595;50.884;4.346;2022-09-16T17:21:24;3.50;;;0.73;;
30892;SDS011;17595;50.884;4.346;2022-09-16T17:23:52;4.73;;;1.10;;
30892;SDS011;17595;50.884;4.346;2022-09-16T17:26:18;5.15;;;0.95;;
30892;SDS011;17595;50.884;4.346;2022-09-16T17:28:45;6.88;;;1.10;;
30892;SDS011;17595;50.884;4.346;2022-09-16T17:31:22;6.85;;;1.17;;
30892;SDS011;17595;50.884;4.346;2022-09-16T17:34:00;3.13;;;1.02;;
30892;SDS011;17595;50.884;4.346;2022-09-16T17:36:29;2.45;;;0.82;;
30892;SDS011;17595;50.884;4.346;2022-09-16T17:38:57;5.75;;;1.38;;
30892;SDS011;17595;50.884;4.346;2022-09-16T17:41:24;7.00;;;1.10;;
30892;SDS011;17595;50.884;4.346;2022-09-16T17:46:22;2.85;;;1.00;;
30892;SDS011;17595;50.884;4.346;2022-09-16T17:48:51;5.55;;;0.90;;
30892;SDS011;17595;50.884;4.346;2022-09-16T17:51:17;7.93;;;1.30;;
30892;SDS011;17595;50.884;4.346;2022-09-16T17:53:43;3.78;;;1.58;;
30892;SDS011;17595;50.884;4.346;2022-09-16T17:56:10;8.23;;;1.45;;
30892;SDS011;17595;50.884;4.346;2022-09-16T17:58:37;3.22;;;0.80;;
30892;SDS011;17595;50.884;4.346;2022-09-16T18:01:11;6.97;;;1.45;;
30892;SDS011;17595;50.884;4.346;2022-09-16T18:03:40;6.28;;;1.20;;
30892;SDS011;17595;50.884;4.346;2022-09-16T18:06:13;4.05;;;1.20;;
30892;SDS011;17595;50.884;4.346;2022-09-16T18:08:41;3.78;;;1.30;;
30892;SDS011;17595;50.884;4.346;2022-09-16T18:11:08;4.15;;;1.58;;
30892;SDS011;17595;50.884;4.346;2022-09-16T18:13:35;6.07;;;2.60;;
30892;SDS011;17595;50.884;4.346;2022-09-16T18:16:02;6.53;;;2.60;;
30892;SDS011;17595;50.884;4.346;2022-09-16T18:18:28;6.85;;;2.17;;
30892;SDS011;17595;50.884;4.346;2022-09-16T18:20:55;4.85;;;1.80;;
30892;SDS011;17595;50.884;4.346;2022-09-16T18:23:22;6.72;;;2.40;;
30892;SDS011;17595;50.884;4.346;2022-09-16T18:25:47;12.30;;;1.92;;
30892;SDS011;17595;50.884;4.346;2022-09-16T18:28:13;7.00;;;1.58;;
30892;SDS011;17595;50.884;4.346;2022-09-16T18:30:39;4.78;;;1.75;;
30892;SDS011;17595;50.884;4.346;2022-09-16T18:33:05;3.92;;;1.25;;
30892;SDS011;17595;50.884;4.346;2022-09-16T18:35:33;6.25;;;1.40;;
30892;SDS011;17595;50.884;4.346;2022-09-16T18:38:01;4.45;;;1.45;;
30892;SDS011;17595;50.884;4.346;2022-09-16T18:40:28;5.05;;;1.60;;
30892;SDS011;17595;50.884;4.346;2022-09-16T18:42:54;5.35;;;1.50;;
30892;SDS011;17595;50.884;4.346;2022-09-16T18:45:20;2.83;;;1.13;;
30892;SDS011;17595;50.884;4.346;2022-09-16T18:47:46;4.32;;;1.38;;
30892;SDS011;17595;50.884;4.346;2022-09-16T18:50:11;2.72;;;1.15;;
30892;SDS011;17595;50.884;4.346;2022-09-16T18:52:37;3.55;;;1.50;;
30892;SDS011;17595;50.884;4.346;2022-09-16T18:55:03;3.75;;;1.83;;
30892;SDS011;17595;50.884;4.346;2022-09-16T18:57:28;5.72;;;1.88;;
30892;SDS011;17595;50.884;4.346;2022-09-16T18:59:54;2.95;;;1.73;;
30892;SDS011;17595;50.884;4.346;2022-09-16T19:02:19;8.10;;;2.00;;
30892;SDS011;17595;50.884;4.346;2022-09-16T19:04:45;5.93;;;1.67;;
30892;SDS011;17595;50.884;4.346;2022-09-16T19:07:11;6.82;;;1.60;;
30892;SDS011;17595;50.884;4.346;2022-09-16T19:09:38;3.72;;;1.50;;
30892;SDS011;17595;50.884;4.346;2022-09-16T19:12:08;4.55;;;1.67;;